createdAt,value
2022-08-14T00:01:11.349Z,10.50
2022-08-14T00:03:58.192Z,10.40
2022-08-14T00:06:55.958Z,10.10
2022-08-14T00:10:50.494Z,8.70
2022-08-14T00:13:37.953Z,8.00
2022-08-14T00:17:09.129Z,8.20
2022-08-14T00:20:23.655Z,8.60
2022-08-14T00:23:35.037Z,8.50
2022-08-14T00:27:03.944Z,8.60
2022-08-14T00:30:08.446Z,8.00
2022-08-14T00:33:16.421Z,8.10
2022-08-14T00:36:48.589Z,7.90
2022-08-14T00:40:27.466Z,7.30
2022-08-14T00:44:27.558Z,7.10
2022-08-14T00:47:24.870Z,7.20
2022-08-14T00:50:34.676Z,8.10
2022-08-14T00:53:44.315Z,7.30
2022-08-14T00:56:41.729Z,7.80
2022-08-14T00:59:52.386Z,7.80
2022-08-14T01:02:53.918Z,7.60
2022-08-14T01:06:23.696Z,7.40
2022-08-14T01:10:07.682Z,7.50
2022-08-14T01:13:22.328Z,7.30
2022-08-14T01:16:32.820Z,7.90
2022-08-14T01:19:58.043Z,7.20
2022-08-14T01:23:19.003Z,7.30
2022-08-14T01:26:38.892Z,7.80
2022-08-14T01:30:04.694Z,9.00
2022-08-14T01:35:16.618Z,8.00
2022-08-14T01:37:16.518Z,7.50
2022-08-14T01:41:11.932Z,7.90
2022-08-14T01:45:09.716Z,7.80
2022-08-14T01:48:25.865Z,8.20
2022-08-14T01:51:51.783Z,7.60
2022-08-14T01:55:26.625Z,7.50
2022-08-14T01:59:22.290Z,6.90
2022-08-14T02:03:17.388Z,7.10
2022-08-14T02:06:52.051Z,7.40
2022-08-14T02:10:29.589Z,7.00
2022-08-14T02:14:15.641Z,7.40
2022-08-14T02:18:18.044Z,7.40
2022-08-14T02:21:52.483Z,7.10
2022-08-14T02:25:38.605Z,6.60
2022-08-14T02:29:27.882Z,7.30
2022-08-14T02:33:02.092Z,7.40
2022-08-14T02:37:04.554Z,7.40
2022-08-14T02:40:32.445Z,7.10
2022-08-14T02:43:45.996Z,7.10
2022-08-14T02:46:42.393Z,7.00
2022-08-14T02:50:05.219Z,7.40
2022-08-14T02:54:09.901Z,7.70
2022-08-14T02:57:39.990Z,7.40
2022-08-14T03:01:06.051Z,7.30
2022-08-14T03:04:06.198Z,7.60
2022-08-14T03:07:07.675Z,8.20
2022-08-14T03:10:27.484Z,7.30
2022-08-14T03:13:19.358Z,7.70
2022-08-14T03:16:20.086Z,7.30
2022-08-14T03:19:30.510Z,7.00
2022-08-14T03:23:00.404Z,7.30
2022-08-14T03:26:01.017Z,6.70
2022-08-14T03:29:20.777Z,6.50
2022-08-14T03:32:34.637Z,6.40
2022-08-14T03:36:00.218Z,6.80
2022-08-14T03:39:12.538Z,6.50
2022-08-14T03:42:19.312Z,6.80
2022-08-14T03:45:52.407Z,7.10
2022-08-14T03:48:40.220Z,7.80
2022-08-14T03:51:29.442Z,7.20
2022-08-14T03:54:20.435Z,7.60
2022-08-14T03:57:43.589Z,7.20
2022-08-14T04:01:25.237Z,7.70
2022-08-14T04:04:49.427Z,7.20
2022-08-14T04:08:08.425Z,7.30
2022-08-14T04:11:43.567Z,7.20
2022-08-14T04:15:12.888Z,8.10
2022-08-14T04:18:35.216Z,8.50
2022-08-14T04:22:03.579Z,7.80
2022-08-14T04:25:16.074Z,7.70
2022-08-14T04:29:02.171Z,7.90
2022-08-14T04:33:02.886Z,7.50
2022-08-14T04:35:56.501Z,7.80
2022-08-14T04:39:46.478Z,7.70
2022-08-14T04:43:17.118Z,8.60
2022-08-14T04:46:55.335Z,8.40
2022-08-14T04:50:23.179Z,7.50
2022-08-14T04:53:40.879Z,7.60
2022-08-14T04:56:39.792Z,7.50
2022-08-14T05:00:18.177Z,7.20
2022-08-14T05:03:28.394Z,7.70
2022-08-14T05:06:35.167Z,7.80
2022-08-14T05:09:43.868Z,6.60
2022-08-14T05:13:14.207Z,6.80
2022-08-14T05:16:04.457Z,6.80
2022-08-14T05:19:25.095Z,6.50
2022-08-14T05:22:34.769Z,6.90
2022-08-14T05:25:55.025Z,5.80
2022-08-14T05:29:05.007Z,6.20
2022-08-14T05:32:11.369Z,6.20
2022-08-14T05:35:25.738Z,5.80
2022-08-14T05:38:31.163Z,6.30
2022-08-14T05:42:10.054Z,5.90
2022-08-14T05:45:19.064Z,5.40
2022-08-14T05:48:33.676Z,5.70
2022-08-14T05:51:51.346Z,5.30
2022-08-14T05:55:11.262Z,5.20
2022-08-14T05:58:07.327Z,5.10
2022-08-14T06:01:03.875Z,5.00
2022-08-14T06:04:09.669Z,4.90
2022-08-14T06:07:18.844Z,5.10
2022-08-14T06:10:24.367Z,5.10
2022-08-14T06:13:44.607Z,4.80
2022-08-14T06:16:57.907Z,5.70
2022-08-14T06:20:10.380Z,5.20
2022-08-14T06:23:39.106Z,5.20
2022-08-14T06:26:56.585Z,5.00
2022-08-14T06:30:24.045Z,5.70
2022-08-14T06:33:30.052Z,5.20
2022-08-14T06:36:32.415Z,5.50
2022-08-14T06:39:36.955Z,5.00
2022-08-14T06:42:33.566Z,5.10
2022-08-14T06:45:54.643Z,5.00
2022-08-14T06:48:51.498Z,4.80
2022-08-14T06:51:51.749Z,5.50
2022-08-14T06:54:59.846Z,5.90
2022-08-14T06:57:59.658Z,4.90
2022-08-14T07:01:28.512Z,4.80
2022-08-14T07:04:56.826Z,5.00
2022-08-14T07:07:53.675Z,5.40
2022-08-14T07:10:37.040Z,4.90
2022-08-14T07:13:27.433Z,5.10
2022-08-14T07:16:27.437Z,4.80
2022-08-14T07:19:31.072Z,4.60
2022-08-14T07:22:25.793Z,4.90
2022-08-14T07:25:16.908Z,4.70
2022-08-14T07:28:20.593Z,4.60
2022-08-14T07:31:10.618Z,5.40
2022-08-14T07:34:36.103Z,5.40
2022-08-14T07:37:17.352Z,4.10
2022-08-14T07:40:27.463Z,5.30
2022-08-14T07:46:01.339Z,4.70
2022-08-14T07:48:48.422Z,4.80
2022-08-14T07:51:36.738Z,4.80
2022-08-14T07:54:30.036Z,4.10
2022-08-14T07:57:22.447Z,4.60
2022-08-14T08:00:31.285Z,5.00
2022-08-14T08:03:19.157Z,4.40
2022-08-14T08:06:10.511Z,4.60
2022-08-14T08:09:03.480Z,5.20
2022-08-14T08:11:57.400Z,4.20
2022-08-14T08:14:56.591Z,4.20
2022-08-14T08:17:53.843Z,4.00
2022-08-14T08:20:53.413Z,3.80
2022-08-14T08:23:50.840Z,4.10
2022-08-14T08:26:34.972Z,3.80
2022-08-14T08:29:28.458Z,3.90
2022-08-14T08:32:13.161Z,4.10
2022-08-14T08:34:57.572Z,4.20
2022-08-14T08:37:44.892Z,4.20
2022-08-14T08:40:42.692Z,3.40
2022-08-14T08:43:36.413Z,4.00
2022-08-14T08:46:24.036Z,4.00
2022-08-14T08:49:10.611Z,3.50
2022-08-14T08:52:04.597Z,3.40
2022-08-14T08:54:54.876Z,4.10
2022-08-14T08:57:38.008Z,3.80
2022-08-14T09:00:26.418Z,3.80
2022-08-14T09:03:13.256Z,3.60
2022-08-14T09:06:04.110Z,3.50
2022-08-14T09:09:20.669Z,3.70
2022-08-14T09:12:07.340Z,3.40
2022-08-14T09:14:57.608Z,3.30
2022-08-14T09:17:42.993Z,3.90
2022-08-14T09:20:29.832Z,3.30
2022-08-14T09:23:17.723Z,3.70
2022-08-14T09:26:21.291Z,4.00
2022-08-14T09:29:06.153Z,3.60
2022-08-14T09:31:56.816Z,3.70
2022-08-14T09:35:13.745Z,4.40
2022-08-14T09:38:06.403Z,3.70
2022-08-14T09:41:04.827Z,4.10
2022-08-14T09:44:06.723Z,4.00
2022-08-14T09:49:43.500Z,4.10
2022-08-14T09:52:54.973Z,4.00
2022-08-14T09:56:00.608Z,4.50
2022-08-14T09:58:50.129Z,4.40
2022-08-14T10:01:52.690Z,4.70
2022-08-14T10:04:46.016Z,4.70
2022-08-14T10:07:53.377Z,5.00
2022-08-14T10:10:43.374Z,5.70
2022-08-14T10:13:52.915Z,5.40
2022-08-14T10:16:47.199Z,4.20
2022-08-14T10:20:02.982Z,5.10
2022-08-14T10:23:22.113Z,4.70
2022-08-14T10:26:22.368Z,5.80
2022-08-14T10:29:28.335Z,6.20
2022-08-14T10:32:28.848Z,6.50
2022-08-14T10:35:23.265Z,6.60
2022-08-14T10:38:36.056Z,7.10
2022-08-14T10:41:48.469Z,6.10
2022-08-14T10:44:53.332Z,7.70
2022-08-14T10:48:08.801Z,6.40
2022-08-14T10:53:40.028Z,7.10
2022-08-14T10:56:35.567Z,7.80
2022-08-14T10:59:36.095Z,7.00
2022-08-14T11:03:11.020Z,7.20
2022-08-14T11:05:59.557Z,7.10
2022-08-14T11:09:16.847Z,7.20
2022-08-14T11:12:44.135Z,7.40
2022-08-14T11:15:28.665Z,7.00
2022-08-14T11:18:20.893Z,6.30
2022-08-14T11:21:19.185Z,7.30
2022-08-14T11:24:54.270Z,7.70
2022-08-14T11:27:16.615Z,7.00
2022-08-14T11:30:50.428Z,6.70
2022-08-14T11:33:09.672Z,7.50
2022-08-14T11:36:00.495Z,7.70
2022-08-14T11:38:46.810Z,7.50
2022-08-14T11:41:35.157Z,8.10
2022-08-14T11:44:45.651Z,8.20
2022-08-14T11:47:25.463Z,7.90
2022-08-14T11:50:37.021Z,8.20
2022-08-14T11:53:32.556Z,7.90
2022-08-14T11:56:18.874Z,7.40
2022-08-14T11:59:26.253Z,7.60
2022-08-14T12:03:01.585Z,7.60
2022-08-14T12:05:15.111Z,7.90
2022-08-14T12:08:06.686Z,7.80
2022-08-14T12:10:59.671Z,7.40
2022-08-14T12:13:56.135Z,7.40
2022-08-14T12:16:39.659Z,8.20
2022-08-14T12:19:26.392Z,7.60
2022-08-14T12:22:12.162Z,7.40
2022-08-14T12:25:24.621Z,7.30
2022-08-14T12:28:27.372Z,8.60
2022-08-14T12:31:20.873Z,8.30
2022-08-14T12:34:12.251Z,9.10
2022-08-14T12:37:08.113Z,8.60
2022-08-14T12:39:58.717Z,8.40
2022-08-14T12:43:02.409Z,9.50
2022-08-14T12:46:26.834Z,9.20
2022-08-14T12:49:23.062Z,9.30
2022-08-14T12:52:17.330Z,8.90
2022-08-14T12:55:06.440Z,9.60
2022-08-14T12:58:28.836Z,10.60
2022-08-14T13:01:20.651Z,12.00
2022-08-14T13:04:10.426Z,10.90
2022-08-14T13:06:54.218Z,11.30
2022-08-14T13:09:37.926Z,9.00
2022-08-14T13:12:31.999Z,9.60
2022-08-14T13:15:20.148Z,10.00
2022-08-14T13:18:17.924Z,9.80
2022-08-14T13:21:12.201Z,10.00
2022-08-14T13:24:05.387Z,11.10
2022-08-14T13:27:04.413Z,11.00
2022-08-14T13:29:51.337Z,10.30
2022-08-14T13:32:40.658Z,11.30
2022-08-14T13:35:24.576Z,11.40
2022-08-14T13:38:10.369Z,10.50
2022-08-14T13:40:59.852Z,11.00
2022-08-14T13:43:59.761Z,9.70
2022-08-14T13:46:46.386Z,11.10
2022-08-14T13:49:33.852Z,10.60
2022-08-14T13:52:52.254Z,10.90
2022-08-14T13:55:28.893Z,11.00
2022-08-14T13:58:39.883Z,10.30
2022-08-14T14:01:42.792Z,8.90
2022-08-14T14:04:49.351Z,8.80
2022-08-14T14:07:43.332Z,7.90
2022-08-14T14:10:36.950Z,8.20
2022-08-14T14:13:42.017Z,7.30
2022-08-14T14:16:30.681Z,8.70
2022-08-14T14:19:27.333Z,8.10
2022-08-14T14:23:01.029Z,8.70
2022-08-14T14:25:48.728Z,7.50
2022-08-14T14:28:41.741Z,7.80
2022-08-14T14:31:31.261Z,7.30
2022-08-14T14:34:42.704Z,7.20
2022-08-14T14:37:50.459Z,7.60
2022-08-14T14:41:01.395Z,7.80
2022-08-14T14:43:51.630Z,7.10
2022-08-14T14:46:50.672Z,7.50
2022-08-14T14:49:54.621Z,7.60
2022-08-14T14:52:39.718Z,7.40
2022-08-14T14:55:27.685Z,7.70
2022-08-14T14:58:30.017Z,7.40
2022-08-14T15:01:15.777Z,7.00
2022-08-14T15:04:04.087Z,6.70
2022-08-14T15:06:53.030Z,6.90
2022-08-14T15:09:36.575Z,7.10
2022-08-14T15:12:55.494Z,6.80
2022-08-14T15:15:23.841Z,7.00
2022-08-14T15:18:15.020Z,6.50
2022-08-14T15:21:14.996Z,6.80
2022-08-14T15:23:59.297Z,7.70
2022-08-14T15:26:44.729Z,7.00
2022-08-14T15:29:29.960Z,6.20
2022-08-14T15:32:14.737Z,6.70
2022-08-14T15:35:02.599Z,6.60
2022-08-14T15:37:45.996Z,6.20
2022-08-14T15:40:31.169Z,6.90
2022-08-14T15:43:14.742Z,6.30
2022-08-14T15:46:07.192Z,6.70
2022-08-14T15:48:50.269Z,7.00
2022-08-14T15:51:42.423Z,7.00
2022-08-14T15:54:35.667Z,6.90
2022-08-14T16:00:40.362Z,6.80
2022-08-14T16:03:35.959Z,7.10
2022-08-14T16:06:27.004Z,7.90
2022-08-14T16:09:12.297Z,7.20
2022-08-14T16:11:57.057Z,7.20
2022-08-14T16:14:43.786Z,7.10
2022-08-14T16:17:29.186Z,7.50
2022-08-14T16:20:42.445Z,7.80
2022-08-14T16:23:55.305Z,7.10
2022-08-14T16:26:41.274Z,7.50
2022-08-14T16:29:26.812Z,7.60
2022-08-14T16:32:32.464Z,8.00
2022-08-14T16:35:43.409Z,7.60
2022-08-14T16:38:48.240Z,7.10
2022-08-14T16:41:34.982Z,7.20
2022-08-14T16:44:31.553Z,7.10
2022-08-14T16:47:38.516Z,7.40
2022-08-14T16:50:44.929Z,7.10
2022-08-14T16:53:29.111Z,7.90
2022-08-14T16:56:25.370Z,7.70
2022-08-14T16:59:20.359Z,7.70
2022-08-14T17:02:42.654Z,8.30
2022-08-14T17:05:29.278Z,8.20
2022-08-14T17:08:41.812Z,8.30
2022-08-14T17:11:27.841Z,8.50
2022-08-14T17:14:19.059Z,8.90
2022-08-14T17:17:04.848Z,8.00
2022-08-14T17:20:08.679Z,7.90
2022-08-14T17:23:14.381Z,8.40
2022-08-14T17:26:00.464Z,8.50
2022-08-14T17:28:54.787Z,8.20
2022-08-14T17:32:03.837Z,9.20
2022-08-14T17:34:53.177Z,8.70
2022-08-14T17:37:45.095Z,8.60
2022-08-14T17:43:42.137Z,9.60
2022-08-14T17:46:45.753Z,9.60
2022-08-14T17:50:01.742Z,8.70
2022-08-14T17:53:30.474Z,8.70
2022-08-14T17:56:31.457Z,10.00
2022-08-14T17:59:25.779Z,9.50
2022-08-14T18:02:31.392Z,10.00
2022-08-14T18:06:06.635Z,10.40
2022-08-14T18:09:20.076Z,9.40
2022-08-14T18:12:31.829Z,9.60
2022-08-14T18:15:18.510Z,10.10
2022-08-14T18:18:24.685Z,10.10
2022-08-14T18:21:56.368Z,10.00
2022-08-14T18:24:39.455Z,8.90
2022-08-14T18:27:37.551Z,10.80
2022-08-14T18:30:40.611Z,9.90
2022-08-14T18:36:55.454Z,10.30
2022-08-14T18:40:35.016Z,10.80
2022-08-14T18:43:59.424Z,10.40
2022-08-14T18:47:56.652Z,11.00
2022-08-14T18:50:58.115Z,10.40
2022-08-14T18:54:34.451Z,10.10
2022-08-14T18:57:23.483Z,11.40
2022-08-14T19:00:51.427Z,10.80
2022-08-14T19:04:00.041Z,10.90
2022-08-14T19:06:55.889Z,10.70
2022-08-14T19:10:31.966Z,10.10
2022-08-14T19:13:48.760Z,10.90
2022-08-14T19:17:08.769Z,11.30
2022-08-14T19:20:27.210Z,11.80
2022-08-14T19:24:00.211Z,11.90
2022-08-14T19:27:37.789Z,11.10
2022-08-14T19:30:36.461Z,11.30
2022-08-14T19:33:52.718Z,12.30
2022-08-14T19:37:06.139Z,11.70
2022-08-14T19:39:59.269Z,12.70
2022-08-14T19:43:08.945Z,11.90
2022-08-14T19:46:01.339Z,11.70
2022-08-14T19:48:56.989Z,11.80
2022-08-14T19:52:17.655Z,11.90
2022-08-14T19:55:18.593Z,12.80
2022-08-14T19:58:28.093Z,12.60
2022-08-14T20:01:36.975Z,13.10
2022-08-14T20:05:04.028Z,13.10
2022-08-14T20:08:40.394Z,12.70
2022-08-14T20:12:01.927Z,13.10
2022-08-14T20:14:56.211Z,12.50
2022-08-14T20:17:52.545Z,13.40
2022-08-14T20:20:42.705Z,13.80
2022-08-14T20:23:38.429Z,20.20
2022-08-14T20:26:52.568Z,23.00
2022-08-14T20:30:29.614Z,23.70
2022-08-14T20:33:27.521Z,23.10
2022-08-14T20:36:26.557Z,22.00
2022-08-14T20:39:34.339Z,19.40
2022-08-14T20:42:43.626Z,17.00
2022-08-14T20:45:48.535Z,16.50
2022-08-14T20:48:52.642Z,15.40
2022-08-14T20:51:58.843Z,16.40
2022-08-14T20:54:50.634Z,16.00
2022-08-14T20:57:43.759Z,16.20
2022-08-14T21:01:06.116Z,15.10
2022-08-14T21:04:31.472Z,15.70
2022-08-14T21:07:25.552Z,14.70
2022-08-14T21:10:35.280Z,15.00
2022-08-14T21:14:19.922Z,16.80
2022-08-14T21:16:58.213Z,16.20
2022-08-14T21:20:21.382Z,16.20
2022-08-14T21:23:35.755Z,14.20
2022-08-14T21:27:09.401Z,14.70
2022-08-14T21:30:21.433Z,16.00
2022-08-14T21:33:32.073Z,16.90
2022-08-14T21:36:30.925Z,17.00
2022-08-14T21:39:28.012Z,17.20
2022-08-14T21:42:23.185Z,17.10
2022-08-14T21:45:20.815Z,16.10
2022-08-14T21:48:14.181Z,17.50
2022-08-14T21:51:54.899Z,17.90
2022-08-14T21:55:08.651Z,17.50
2022-08-14T21:58:51.519Z,16.20
2022-08-14T22:02:00.860Z,18.20
2022-08-14T22:05:04.067Z,17.20
2022-08-14T22:08:26.928Z,17.80
2022-08-14T22:11:37.617Z,17.30
2022-08-14T22:14:32.020Z,16.50
2022-08-14T22:17:35.425Z,17.50
2022-08-14T22:20:53.706Z,18.30
2022-08-14T22:24:38.340Z,18.40
2022-08-14T22:27:56.394Z,17.10
2022-08-14T22:31:35.066Z,19.60
2022-08-14T22:34:29.365Z,18.30
2022-08-14T22:37:32.177Z,18.40
2022-08-14T22:41:20.737Z,18.40
2022-08-14T22:44:32.106Z,18.90
2022-08-14T22:48:11.103Z,20.00
2022-08-14T22:51:54.883Z,18.30
2022-08-14T22:55:09.740Z,19.70
2022-08-14T22:58:47.494Z,19.40
2022-08-14T23:02:03.836Z,20.60
2022-08-14T23:05:16.014Z,20.70
2022-08-14T23:08:58.978Z,22.10
2022-08-14T23:12:27.778Z,23.10
2022-08-14T23:15:44.869Z,21.70
2022-08-14T23:18:53.600Z,21.80
2022-08-14T23:22:08.159Z,21.30
2022-08-14T23:25:56.921Z,23.50
2022-08-14T23:28:33.375Z,22.50
2022-08-14T23:31:56.093Z,22.00
2022-08-14T23:35:17.736Z,22.50
2022-08-14T23:38:31.592Z,22.90
2022-08-14T23:41:24.262Z,22.90
2022-08-14T23:47:28.326Z,22.20
2022-08-14T23:50:34.206Z,22.40
2022-08-14T23:53:48.085Z,21.80
2022-08-14T23:56:45.501Z,22.70
2022-08-14T23:59:54.254Z,21.90
